createdAt,value
2019-01-08T00:01:35.967Z,34.40
2019-01-08T00:04:05.712Z,40.55
2019-01-08T00:06:34.983Z,39.85
2019-01-08T00:09:04.612Z,43.73
2019-01-08T00:11:34.363Z,43.33
2019-01-08T00:14:04.049Z,38.13
2019-01-08T00:16:33.541Z,41.63
2019-01-08T00:19:03.346Z,38.90
2019-01-08T00:21:33.147Z,37.80
2019-01-08T00:24:02.556Z,39.38
2019-01-08T00:26:32.204Z,39.08
2019-01-08T00:29:02.011Z,36.75
2019-01-08T00:31:31.343Z,46.30
2019-01-08T00:34:00.623Z,52.27
2019-01-08T00:36:30.206Z,39.08
2019-01-08T00:38:59.733Z,37.15
2019-01-08T00:41:29.418Z,41.08
2019-01-08T00:43:58.917Z,40.15
2019-01-08T00:46:28.207Z,39.08
2019-01-08T00:48:57.671Z,41.83
2019-01-08T00:51:27.236Z,43.20
2019-01-08T00:53:56.731Z,40.92
2019-01-08T00:56:26.383Z,40.20
2019-01-08T00:58:55.955Z,37.40
2019-01-08T01:01:25.407Z,37.65
2019-01-08T01:03:55.247Z,32.38
2019-01-08T01:06:24.691Z,42.05
2019-01-08T01:08:54.305Z,41.83
2019-01-08T01:11:24.044Z,35.13
2019-01-08T01:13:53.458Z,42.45
2019-01-08T01:16:22.883Z,47.85
2019-01-08T01:18:52.685Z,41.75
2019-01-08T01:21:22.138Z,46.15
2019-01-08T01:23:51.866Z,44.85
2019-01-08T01:26:21.396Z,40.67
2019-01-08T01:28:50.849Z,43.25
2019-01-08T01:31:20.445Z,44.18
2019-01-08T01:33:49.766Z,29.75
2019-01-08T01:36:19.149Z,35.00
2019-01-08T01:38:49.200Z,41.28
2019-01-08T01:41:18.576Z,46.90
2019-01-08T01:43:47.975Z,45.55
2019-01-08T01:46:17.308Z,40.35
2019-01-08T01:48:46.603Z,43.02
2019-01-08T01:51:16.118Z,44.55
2019-01-08T01:53:45.854Z,42.30
2019-01-08T01:56:15.245Z,39.05
2019-01-08T01:58:45.063Z,44.58
2019-01-08T02:01:14.740Z,32.65
2019-01-08T02:03:44.331Z,42.30
2019-01-08T02:06:13.807Z,34.88
2019-01-08T02:08:43.403Z,48.78
2019-01-08T02:11:12.748Z,37.83
2019-01-08T02:13:42.457Z,40.90
2019-01-08T02:16:12.202Z,33.18
2019-01-08T02:18:41.730Z,38.70
2019-01-08T02:21:12.156Z,37.25
2019-01-08T02:23:41.558Z,46.88
2019-01-08T02:26:11.284Z,43.55
2019-01-08T02:28:40.923Z,37.88
2019-01-08T02:31:10.405Z,40.95
2019-01-08T02:33:39.965Z,42.93
2019-01-08T02:36:09.449Z,41.05
2019-01-08T02:38:38.939Z,38.53
2019-01-08T02:41:08.666Z,38.58
2019-01-08T02:43:38.050Z,42.88
2019-01-08T02:46:07.907Z,39.25
2019-01-08T02:48:37.180Z,43.58
2019-01-08T02:51:06.692Z,63.17
2019-01-08T02:53:36.423Z,64.92
2019-01-08T02:56:05.789Z,64.85
2019-01-08T02:58:35.496Z,64.10
2019-01-08T03:01:05.098Z,69.95
2019-01-08T03:03:34.942Z,65.47
2019-01-08T03:06:04.735Z,64.92
2019-01-08T03:08:34.115Z,69.62
2019-01-08T03:11:03.663Z,80.00
2019-01-08T03:13:33.359Z,72.85
2019-01-08T03:16:03.161Z,72.17
2019-01-08T03:18:32.526Z,69.85
2019-01-08T03:21:02.286Z,70.65
2019-01-08T03:23:32.096Z,73.40
2019-01-08T03:26:01.816Z,69.37
2019-01-08T03:28:31.312Z,69.65
2019-01-08T03:31:01.029Z,59.65
2019-01-08T03:33:30.445Z,63.95
2019-01-08T03:36:00.055Z,69.32
2019-01-08T03:38:29.724Z,66.53
2019-01-08T03:40:59.252Z,70.87
2019-01-08T03:43:29.070Z,74.50
2019-01-08T03:45:58.869Z,79.72
2019-01-08T03:48:28.728Z,81.53
2019-01-08T03:50:58.155Z,78.87
2019-01-08T03:53:27.708Z,88.52
2019-01-08T03:55:57.254Z,83.87
2019-01-08T03:58:26.818Z,75.97
2019-01-08T04:00:56.247Z,86.40
2019-01-08T04:03:25.905Z,83.65
2019-01-08T04:05:55.555Z,101.18
2019-01-08T04:08:25.171Z,119.17
2019-01-08T04:10:54.667Z,104.05
2019-01-08T04:13:24.407Z,84.97
2019-01-08T04:15:53.858Z,88.40
2019-01-08T04:18:23.527Z,86.12
2019-01-08T04:20:53.404Z,87.12
2019-01-08T04:23:23.173Z,82.50
2019-01-08T04:25:52.919Z,78.57
2019-01-08T04:28:22.207Z,74.77
2019-01-08T04:30:51.608Z,82.08
2019-01-08T04:33:21.027Z,77.10
2019-01-08T04:35:50.796Z,81.45
2019-01-08T04:38:20.179Z,90.92
2019-01-08T04:40:49.475Z,86.20
2019-01-08T04:43:18.783Z,80.12
2019-01-08T04:45:49.616Z,91.42
2019-01-08T04:48:18.971Z,95.32
2019-01-08T04:50:48.339Z,89.52
2019-01-08T04:53:17.806Z,92.30
2019-01-08T04:55:47.178Z,104.05
2019-01-08T04:58:16.822Z,86.32
2019-01-08T05:00:46.546Z,97.37
2019-01-08T05:03:16.032Z,100.78
2019-01-08T05:05:45.535Z,101.25
2019-01-08T05:08:14.948Z,99.47
2019-01-08T05:10:44.229Z,102.82
2019-01-08T05:13:13.956Z,103.45
2019-01-08T05:15:43.530Z,110.80
2019-01-08T05:18:13.246Z,96.90
2019-01-08T05:20:42.641Z,99.35
2019-01-08T05:23:12.152Z,89.50
2019-01-08T05:25:41.801Z,111.57
2019-01-08T05:28:11.368Z,113.10
2019-01-08T05:30:40.905Z,121.17
2019-01-08T05:33:10.302Z,114.88
2019-01-08T05:35:39.916Z,98.22
2019-01-08T05:38:09.304Z,80.32
2019-01-08T05:40:38.893Z,81.63
2019-01-08T05:43:08.335Z,70.78
2019-01-08T05:45:37.962Z,74.92
2019-01-08T05:48:08.132Z,83.03
2019-01-08T05:50:37.734Z,77.95
2019-01-08T05:53:07.307Z,120.02
2019-01-08T05:55:36.885Z,92.92
2019-01-08T05:58:06.223Z,87.25
2019-01-08T06:00:36.000Z,105.97
2019-01-08T06:03:05.450Z,107.25
2019-01-08T06:05:35.099Z,113.05
2019-01-08T06:08:04.743Z,120.90
2019-01-08T06:10:34.308Z,113.20
2019-01-08T06:13:04.090Z,113.97
2019-01-08T06:15:33.763Z,111.08
2019-01-08T06:18:03.509Z,121.45
2019-01-08T06:20:33.278Z,113.08
2019-01-08T06:23:03.075Z,99.40
2019-01-08T06:25:32.705Z,89.22
2019-01-08T06:28:02.992Z,90.67
2019-01-08T06:30:33.478Z,91.55
2019-01-08T06:33:03.254Z,95.50
2019-01-08T06:35:32.792Z,100.87
2019-01-08T06:38:02.675Z,103.02
2019-01-08T06:40:32.284Z,103.72
2019-01-08T06:43:02.006Z,95.10
2019-01-08T06:45:31.665Z,92.33
2019-01-08T06:48:01.418Z,93.80
2019-01-08T06:50:31.059Z,90.70
2019-01-08T06:53:00.756Z,100.92
2019-01-08T06:55:30.455Z,89.03
2019-01-08T06:58:00.204Z,94.72
2019-01-08T07:00:33.531Z,104.95
2019-01-08T07:02:59.694Z,104.70
2019-01-08T07:05:29.510Z,112.40
2019-01-08T07:07:59.215Z,106.65
2019-01-08T07:10:28.814Z,103.27
2019-01-08T07:12:58.678Z,95.03
2019-01-08T07:15:28.469Z,93.87
2019-01-08T07:17:58.351Z,100.80
2019-01-08T07:20:28.157Z,111.85
2019-01-08T07:22:57.730Z,110.12
2019-01-08T07:25:27.388Z,107.92
2019-01-08T07:27:57.166Z,130.90
2019-01-08T07:30:26.884Z,184.20
2019-01-08T07:32:56.644Z,122.53
2019-01-08T07:35:26.394Z,107.90
2019-01-08T07:37:56.101Z,98.75
2019-01-08T07:40:25.654Z,100.62
2019-01-08T07:42:55.864Z,99.62
2019-01-08T07:45:25.533Z,94.37
2019-01-08T07:47:55.284Z,95.90
2019-01-08T07:50:25.254Z,101.72
2019-01-08T07:52:54.964Z,91.85
2019-01-08T07:55:24.523Z,93.27
2019-01-08T07:57:54.346Z,96.60
2019-01-08T08:00:24.128Z,108.75
2019-01-08T08:02:53.774Z,115.40
2019-01-08T08:05:23.240Z,107.25
2019-01-08T08:07:54.461Z,115.92
2019-01-08T08:10:22.674Z,113.83
2019-01-08T08:12:52.301Z,100.45
2019-01-08T08:15:21.990Z,94.03
2019-01-08T08:17:51.718Z,88.70
2019-01-08T08:20:21.571Z,74.77
2019-01-08T08:22:51.384Z,77.45
2019-01-08T08:25:21.035Z,73.25
2019-01-08T08:27:50.527Z,67.65
2019-01-08T08:30:20.172Z,76.37
2019-01-08T08:32:49.795Z,81.40
2019-01-08T08:35:19.668Z,72.37
2019-01-08T08:37:49.423Z,81.53
2019-01-08T08:40:18.999Z,103.53
2019-01-08T08:42:48.705Z,111.55
2019-01-08T08:45:18.450Z,102.27
2019-01-08T08:47:48.059Z,87.55
2019-01-08T08:50:17.538Z,84.07
2019-01-08T08:52:47.061Z,88.05
2019-01-08T08:55:16.566Z,87.02
2019-01-08T08:57:46.278Z,98.22
2019-01-08T09:00:16.166Z,82.70
2019-01-08T09:02:45.820Z,83.70
2019-01-08T09:05:15.538Z,77.17
2019-01-08T09:07:45.112Z,77.15
2019-01-08T09:10:14.935Z,65.57
2019-01-08T09:12:44.627Z,62.27
2019-01-08T09:15:15.876Z,48.92
2019-01-08T09:17:45.528Z,53.83
2019-01-08T09:20:15.100Z,60.98
2019-01-08T09:22:45.764Z,63.52
2019-01-08T09:25:17.313Z,46.85
2019-01-08T09:27:47.157Z,43.17
2019-01-08T09:30:16.866Z,34.27
2019-01-08T09:32:46.500Z,34.03
2019-01-08T09:35:16.144Z,40.60
2019-01-08T09:37:45.796Z,40.92
2019-01-08T09:40:15.472Z,34.50
2019-01-08T09:42:45.381Z,28.25
2019-01-08T09:45:14.823Z,30.30
2019-01-08T09:47:44.479Z,31.20
2019-01-08T09:50:14.239Z,36.40
2019-01-08T09:52:43.952Z,30.43
2019-01-08T09:55:13.451Z,33.83
2019-01-08T09:57:43.128Z,31.57
2019-01-08T10:00:12.806Z,30.90
2019-01-08T10:02:42.462Z,30.25
2019-01-08T10:05:12.359Z,31.42
2019-01-08T10:07:42.035Z,33.28
2019-01-08T10:10:11.875Z,34.80
2019-01-08T10:12:41.546Z,34.03
2019-01-08T10:15:11.412Z,44.63
2019-01-08T10:17:40.888Z,38.45
2019-01-08T10:20:10.373Z,35.03
2019-01-08T10:22:40.099Z,30.15
2019-01-08T10:25:09.614Z,29.57
2019-01-08T10:27:39.242Z,30.20
2019-01-08T10:30:11.446Z,36.88
2019-01-08T10:32:41.159Z,28.55
2019-01-08T10:35:10.725Z,31.27
2019-01-08T10:37:40.386Z,31.12
2019-01-08T10:40:10.099Z,30.50
2019-01-08T10:42:39.919Z,34.23
2019-01-08T10:45:09.295Z,33.85
2019-01-08T10:47:39.065Z,28.87
2019-01-08T10:50:08.724Z,40.03
2019-01-08T10:52:38.500Z,232.32
2019-01-08T10:55:08.010Z,35.88
2019-01-08T10:57:38.371Z,30.37
2019-01-08T11:00:08.758Z,33.85
2019-01-08T11:02:38.264Z,37.13
2019-01-08T11:05:07.676Z,31.02
2019-01-08T11:07:37.308Z,34.73
2019-01-08T11:10:07.150Z,39.20
2019-01-08T11:12:37.038Z,33.80
2019-01-08T11:15:07.263Z,41.73
2019-01-08T11:17:36.869Z,37.15
2019-01-08T11:20:06.728Z,34.03
2019-01-08T11:22:36.467Z,34.05
2019-01-08T11:25:05.972Z,33.18
2019-01-08T11:27:35.622Z,36.42
2019-01-08T11:30:05.645Z,29.65
2019-01-08T11:32:35.103Z,36.77
2019-01-08T11:35:04.667Z,33.38
2019-01-08T11:37:34.519Z,48.13
2019-01-08T11:40:04.118Z,40.35
2019-01-08T11:42:33.632Z,38.63
2019-01-08T11:45:03.388Z,45.43
2019-01-08T11:47:33.007Z,32.63
2019-01-08T11:50:02.716Z,38.20
2019-01-08T11:52:32.470Z,30.08
2019-01-08T11:55:02.229Z,30.95
2019-01-08T11:57:32.161Z,34.45
2019-01-08T12:00:01.998Z,37.58
2019-01-08T12:02:31.572Z,34.45
2019-01-08T12:05:01.282Z,34.75
2019-01-08T12:07:31.527Z,44.85
2019-01-08T12:10:03.221Z,42.25
2019-01-08T12:12:33.057Z,62.25
2019-01-08T12:15:02.970Z,44.13
2019-01-08T12:17:32.726Z,31.25
2019-01-08T12:20:02.619Z,24.50
2019-01-08T12:22:40.599Z,24.47
2019-01-08T12:25:02.942Z,33.48
2019-01-08T12:27:32.487Z,28.50
2019-01-08T12:30:02.185Z,28.23
2019-01-08T12:32:31.940Z,29.55
2019-01-08T12:35:01.525Z,26.73
2019-01-08T12:37:31.195Z,26.85
2019-01-08T12:40:01.045Z,30.02
2019-01-08T12:42:30.796Z,28.87
2019-01-08T12:45:00.636Z,28.85
2019-01-08T12:47:30.439Z,34.83
2019-01-08T12:50:00.349Z,34.50
2019-01-08T12:52:30.174Z,27.85
2019-01-08T12:55:01.152Z,26.87
2019-01-08T12:57:30.648Z,24.72
2019-01-08T13:00:00.309Z,28.52
2019-01-08T13:02:30.107Z,20.00
2019-01-08T13:05:00.199Z,24.12
2019-01-08T13:07:29.691Z,23.05
2019-01-08T13:09:59.413Z,25.75
2019-01-08T13:12:28.887Z,28.73
2019-01-08T13:14:58.446Z,25.08
2019-01-08T13:17:28.202Z,20.88
2019-01-08T13:19:57.834Z,18.70
2019-01-08T13:22:33.889Z,27.98
2019-01-08T13:25:03.820Z,24.75
2019-01-08T13:27:33.555Z,66.05
2019-01-08T13:30:03.279Z,31.42
2019-01-08T13:32:32.880Z,25.12
2019-01-08T13:35:02.577Z,22.62
2019-01-08T13:37:32.100Z,20.52
2019-01-08T13:40:02.022Z,32.48
2019-01-08T13:42:31.712Z,47.05
2019-01-08T13:45:01.335Z,45.58
2019-01-08T13:47:32.136Z,43.87
2019-01-08T13:50:01.645Z,48.87
2019-01-08T13:52:31.354Z,43.30
2019-01-08T13:55:01.338Z,49.80
2019-01-08T13:57:30.767Z,40.58
2019-01-08T14:00:01.367Z,40.55
2019-01-08T14:02:32.033Z,52.45
2019-01-08T14:05:01.036Z,49.05
2019-01-08T14:07:30.917Z,38.10
2019-01-08T14:10:00.459Z,44.75
2019-01-08T14:12:30.284Z,45.23
2019-01-08T14:15:00.029Z,54.20
2019-01-08T14:17:29.583Z,49.75
2019-01-08T14:19:59.331Z,40.43
2019-01-08T14:22:29.070Z,40.75
2019-01-08T14:24:58.801Z,38.80
2019-01-08T14:27:28.452Z,42.60
2019-01-08T14:29:58.225Z,43.25
2019-01-08T14:32:27.719Z,44.98
2019-01-08T14:34:57.694Z,41.28
2019-01-08T14:37:27.464Z,43.05
2019-01-08T14:39:57.033Z,42.62
2019-01-08T14:42:26.734Z,41.80
2019-01-08T14:44:56.392Z,49.83
2019-01-08T14:47:25.965Z,52.88
2019-01-08T14:49:55.713Z,43.87
2019-01-08T14:52:25.254Z,46.63
2019-01-08T14:54:54.848Z,47.23
2019-01-08T14:57:24.576Z,53.23
2019-01-08T14:59:54.359Z,51.42
2019-01-08T15:02:23.744Z,50.20
2019-01-08T15:04:53.329Z,45.33
2019-01-08T15:07:23.044Z,114.17
2019-01-08T15:09:52.822Z,249.40
2019-01-08T15:12:22.588Z,678.70
2019-01-08T15:14:52.446Z,482.38
2019-01-08T15:17:22.232Z,1157.85
2019-01-08T15:19:51.775Z,105.30
2019-01-08T15:22:21.347Z,115.88
2019-01-08T15:24:51.255Z,746.98
2019-01-08T15:27:21.096Z,469.35
2019-01-08T15:29:50.944Z,1999.90
2019-01-08T15:32:20.480Z,1999.90
2019-01-08T15:34:50.448Z,1999.90
2019-01-08T15:37:19.905Z,1373.10
2019-01-08T15:39:49.920Z,1816.83
2019-01-08T15:42:19.764Z,1999.90
2019-01-08T15:44:49.310Z,1999.90
2019-01-08T15:47:20.287Z,1245.10
2019-01-08T15:49:49.885Z,1905.55
2019-01-08T15:52:19.632Z,1999.90
2019-01-08T15:54:49.185Z,308.63
2019-01-08T15:57:19.011Z,118.33
2019-01-08T15:59:48.394Z,94.87
2019-01-08T16:02:18.021Z,91.85
2019-01-08T16:04:47.467Z,94.15
2019-01-08T16:24:38.895Z,100.12
2019-01-08T16:27:09.155Z,101.75
2019-01-08T16:29:38.801Z,96.12
2019-01-08T16:32:08.556Z,86.85
2019-01-08T16:34:38.017Z,97.95
2019-01-08T16:37:07.756Z,86.20
2019-01-08T16:39:37.197Z,89.37
2019-01-08T16:42:06.823Z,92.62
2019-01-08T16:44:36.594Z,91.87
2019-01-08T16:47:06.241Z,89.50
2019-01-08T16:49:35.754Z,86.17
2019-01-08T16:52:07.251Z,85.87
2019-01-08T17:11:58.854Z,91.90
2019-01-08T17:31:50.287Z,135.82
2019-01-08T17:51:42.459Z,93.72
2019-01-08T17:54:12.231Z,119.30
2019-01-08T17:56:42.027Z,90.97
2019-01-08T18:19:27.742Z,96.08
2019-01-08T18:21:57.269Z,92.53
2019-01-08T18:24:27.043Z,88.97
2019-01-08T18:26:56.771Z,227.78
2019-01-08T18:29:26.495Z,132.75
2019-01-08T18:31:56.441Z,104.97
2019-01-08T18:34:26.081Z,98.52
2019-01-08T18:36:55.695Z,96.78
2019-01-08T18:39:25.442Z,103.07
2019-01-08T18:59:17.385Z,94.22
2019-01-08T19:01:46.948Z,99.42
2019-01-08T19:04:16.559Z,92.65
2019-01-08T19:06:46.200Z,91.22
2019-01-08T19:09:27.765Z,95.20
2019-01-08T19:11:57.620Z,119.82
2019-01-08T19:14:30.930Z,98.60
2019-01-08T19:17:00.683Z,92.05
2019-01-08T19:19:30.298Z,101.42
2019-01-08T19:21:59.971Z,97.82
2019-01-08T19:24:29.712Z,93.22
2019-01-08T19:26:59.312Z,96.15
2019-01-08T19:29:28.884Z,93.60
2019-01-08T19:31:58.555Z,96.63
2019-01-08T19:34:28.141Z,95.50
2019-01-08T19:36:57.747Z,95.85
2019-01-08T19:39:27.293Z,98.67
2019-01-08T19:41:56.843Z,101.02
2019-01-08T19:44:26.303Z,115.35
2019-01-08T19:46:56.962Z,111.35
2019-01-08T19:49:26.581Z,103.87
2019-01-08T19:51:56.722Z,112.08
2019-01-08T19:54:26.501Z,95.70
2019-01-08T20:14:20.163Z,80.77
2019-01-08T20:16:49.733Z,87.12
2019-01-08T20:19:19.554Z,88.70
2019-01-08T20:21:48.998Z,87.02
2019-01-08T20:24:18.783Z,85.28
2019-01-08T20:26:48.252Z,104.45
2019-01-08T20:29:17.778Z,88.22
2019-01-08T20:31:47.456Z,98.65
2019-01-08T20:34:16.900Z,89.35
2019-01-08T20:36:46.579Z,82.82
2019-01-08T20:39:16.202Z,92.02
2019-01-08T20:41:45.865Z,92.50
2019-01-08T21:01:39.779Z,87.88
2019-01-08T21:04:09.566Z,81.15
2019-01-08T21:06:40.112Z,70.20
2019-01-08T21:26:32.412Z,74.82
2019-01-08T21:29:02.175Z,73.75
2019-01-08T21:31:31.734Z,80.40
2019-01-08T21:34:01.552Z,87.95
2019-01-08T21:36:31.139Z,85.35
2019-01-08T21:39:00.735Z,75.05
2019-01-08T21:41:30.373Z,73.17
2019-01-08T21:43:59.902Z,74.92
2019-01-08T22:21:13.780Z,104.97
2019-01-08T22:23:43.395Z,100.10
2019-01-08T22:26:12.969Z,118.97
2019-01-08T22:28:42.735Z,120.05
2019-01-08T22:31:12.393Z,110.75
2019-01-08T22:33:42.094Z,101.87
2019-01-08T22:36:11.654Z,106.87
2019-01-08T22:38:41.322Z,98.67
2019-01-08T22:41:11.097Z,100.78
2019-01-08T22:43:40.764Z,92.57
2019-01-08T22:46:10.316Z,96.57
2019-01-08T22:48:39.849Z,84.00
2019-01-08T23:08:31.568Z,92.30
2019-01-08T23:11:01.404Z,87.82
2019-01-08T23:13:31.322Z,90.50
2019-01-08T23:16:01.584Z,93.52
2019-01-08T23:21:05.783Z,98.33
2019-01-08T23:23:35.367Z,99.92
2019-01-08T23:26:05.051Z,98.60
2019-01-08T23:28:34.741Z,96.08
2019-01-08T23:31:04.318Z,94.55
2019-01-08T23:33:33.994Z,94.10
2019-01-08T23:36:03.774Z,95.47
2019-01-08T23:38:33.446Z,93.62
2019-01-08T23:41:03.146Z,93.85
